Time;durP1;ratioP1;P1;durP2;ratioP2;P2;SDS_P1;SDS_P2;PMS_P1;PMS_P2;Temp;Humidity;BMP_temperature;BMP_pressure;BME280_temperature;BME280_humidity;BME280_pressure;Samples;Min_cycle;Max_cycle;Signal;HPM_P1;HPM_P2
2022/04/14 00:01:29;;;;;;;3.08;1.40;;;;;;;5.23;88.30;99610.98;1756286;81;22002;-65
2022/04/14 00:03:58;;;;;;;4.20;1.60;;;;;;;5.19;88.71;99607.77;1754008;81;20915;-65
2022/04/14 00:06:27;;;;;;;3.87;1.55;;;;;;;5.19;88.71;99607.77;1757838;80;20939;-66
2022/04/14 00:08:58;;;;;;;4.62;1.70;;;;;;;5.19;89.10;99610.48;1750314;80;21011;-66
2022/04/14 00:11:30;;;;;;;5.00;1.67;;;;;;;5.17;89.16;99603.97;1755470;81;20984;-65
2022/04/14 00:14:03;;;;;;;5.75;2.37;;;;;;;5.18;89.20;99593.89;1729058;80;20916;-65
2022/04/14 00:16:30;;;;;;;5.97;1.70;;;;;;;5.15;89.28;99603.42;1762301;80;20873;-65
2022/04/14 00:19:00;;;;;;;3.95;1.77;;;;;;;5.15;89.31;99601.25;1745828;81;21541;-65
2022/04/14 00:21:29;;;;;;;3.25;1.92;;;;;;;5.10;89.42;99592.56;1747751;81;20952;-65
2022/04/14 00:24:00;;;;;;;6.60;1.90;;;;;;;5.11;89.71;99605.08;1755089;80;21130;-66
2022/04/14 00:26:28;;;;;;;7.05;2.20;;;;;;;5.10;89.68;99604.80;1723399;80;20955;-65
2022/04/14 00:29:02;;;;;;;8.08;2.20;;;;;;;5.10;89.69;99606.17;1761269;81;21012;-66
2022/04/14 00:31:34;;;;;;;3.15;1.75;;;;;;;5.06;89.96;99601.02;1725789;81;20990;-66
2022/04/14 00:34:06;;;;;;;5.40;1.87;;;;;;;5.06;89.96;99601.02;1731586;80;20876;-66
2022/04/14 00:36:37;;;;;;;5.53;1.85;;;;;;;5.08;90.12;99612.98;1714948;80;21085;-66
2022/04/14 00:39:09;;;;;;;5.27;1.63;;;;;;;5.09;90.35;99611.34;1737119;81;20889;-66
2022/04/14 00:41:39;;;;;;;7.15;2.10;;;;;;;5.11;90.17;99608.34;1724089;81;20904;-67
2022/04/14 00:44:10;;;;;;;3.85;1.60;;;;;;;5.11;90.07;99612.42;1747699;81;21490;-67
2022/04/14 00:46:36;;;;;;;5.12;1.92;;;;;;;5.10;90.00;99617.05;1755037;81;20997;-67
2022/04/14 00:49:08;;;;;;;5.10;1.90;;;;;;;5.09;89.97;99618.14;1751900;80;21491;-67
2022/04/14 00:51:49;;;;;;;6.87;1.98;;;;;;;5.10;90.57;99621.13;1725921;81;20889;-67
2022/04/14 00:54:21;;;;;;;4.92;2.02;;;;;;;5.11;90.36;99620.04;1748788;80;20959;-67
2022/04/14 00:56:52;;;;;;;4.17;1.77;;;;;;;5.12;90.21;99620.31;1743236;80;21043;-67
2022/04/14 00:59:21;;;;;;;8.98;2.02;;;;;;;5.11;90.11;99618.69;1759218;81;20928;-67
2022/04/14 01:01:50;;;;;;;7.45;2.35;;;;;;;5.11;90.02;99618.69;1759875;80;21002;-66
2022/04/14 01:04:22;;;;;;;3.40;1.95;;;;;;;5.11;90.10;99624.67;1749210;81;21163;-66
2022/04/14 01:06:54;;;;;;;5.22;2.47;;;;;;;5.10;89.95;99625.22;1752453;80;21043;-66
2022/04/14 01:09:29;;;;;;;6.33;1.90;;;;;;;5.10;89.95;99625.22;1732974;81;21043;-66
2022/04/14 01:12:00;;;;;;;4.83;2.00;;;;;;;5.11;89.85;99623.31;1718959;81;20947;-67
2022/04/14 01:14:38;;;;;;;5.40;2.02;;;;;;;5.10;89.80;99627.94;1722655;82;20889;-67
2022/04/14 01:17:15;;;;;;;3.95;2.20;;;;;;;5.13;89.82;99623.84;1729307;81;21268;-67
2022/04/14 01:19:46;;;;;;;3.50;1.70;;;;;;;5.12;89.91;99620.86;1722718;82;21529;-66
2022/04/14 01:22:34;;;;;;;9.10;1.82;;;;;;;5.12;89.91;99620.86;1720307;81;20897;-66
2022/04/14 01:25:02;;;;;;;5.08;2.25;;;;;;;5.13;89.60;99622.48;1732996;81;20939;-66
2022/04/14 01:27:36;;;;;;;4.33;1.77;;;;;;;5.12;89.48;99623.03;1706119;81;21171;-66
2022/04/14 01:30:09;;;;;;;4.03;1.80;;;;;;;5.13;89.34;99625.20;1722029;81;21805;-67
2022/04/14 01:32:37;;;;;;;10.93;1.90;;;;;;;5.13;89.36;99627.38;1695432;81;20895;-67
2022/04/14 01:35:11;;;;;;;3.72;1.90;;;;;;;5.14;89.32;99628.20;1745426;80;21014;-67
2022/04/14 01:37:40;;;;;;;3.15;1.57;;;;;;;5.14;89.16;99635.00;1769423;79;21730;-67
2022/04/14 01:40:10;;;;;;;6.40;1.87;;;;;;;5.14;88.99;99634.45;1766491;79;21011;-67
2022/04/14 01:42:42;;;;;;;9.23;1.70;;;;;;;5.13;88.66;99627.38;1754691;81;21142;-67
2022/04/14 01:45:11;;;;;;;2.33;1.32;;;;;;;5.16;88.48;99624.66;1762405;80;20923;-67
2022/04/14 01:47:42;;;;;;;4.20;2.10;;;;;;;5.15;88.51;99623.02;1768735;79;20841;-66
2022/04/14 01:50:15;;;;;;;8.78;1.90;;;;;;;5.15;88.51;99623.02;1793906;79;20887;-67
2022/04/14 01:52:52;;;;;;;3.47;1.35;;;;;;;5.14;88.01;99625.48;1789422;79;21558;-68
2022/04/14 01:55:18;;;;;;;5.55;1.82;;;;;;;5.15;87.77;99621.66;1702118;82;21439;-67
2022/04/14 01:57:52;;;;;;;7.70;1.57;;;;;;;5.14;87.48;99627.65;1700643;83;21672;-68
2022/04/14 02:00:21;;;;;;;5.20;1.80;;;;;;;5.15;87.49;99623.84;1718992;82;21450;-68
2022/04/14 02:02:52;;;;;;;3.60;1.23;;;;;;;5.15;87.49;99623.84;1747559;82;21026;-68
2022/04/14 02:05:28;;;;;;;5.72;1.80;;;;;;;5.17;87.23;99616.75;1747559;81;20951;-67
2022/04/14 02:08:03;;;;;;;3.55;1.22;;;;;;;5.18;86.95;99617.02;1725369;82;20939;-68
2022/04/14 02:10:36;;;;;;;;;;;;;;;5.19;86.51;99614.02;1730903;82;20940;-67
2022/04/14 02:13:11;;;;;;;3.25;1.50;;;;;;;5.19;86.36;99618.11;1749193;82;20107;-68
2022/04/14 02:15:39;;;;;;;4.85;1.42;;;;;;;5.19;86.45;99619.47;1735949;81;20936;-67
2022/04/14 02:18:15;;;;;;;6.30;1.30;;;;;;;5.20;85.80;99623.78;1727435;82;20881;-70
2022/04/14 02:20:41;;;;;;;3.80;1.10;;;;;;;5.21;85.31;99631.41;1742492;82;21192;-70
2022/04/14 02:23:12;;;;;;;4.58;1.25;;;;;;;5.21;85.31;99631.41;1733926;82;20940;-69
2022/04/14 02:25:45;;;;;;;3.52;2.08;;;;;;;5.21;84.97;99632.22;1732463;81;21557;-66
2022/04/14 02:28:14;;;;;;;6.30;1.42;;;;;;;5.22;84.89;99637.12;1734768;82;20917;-66
2022/04/14 02:30:48;;;;;;;3.75;1.30;;;;;;;5.24;84.33;99649.91;1724008;81;20975;-66
2022/04/14 02:33:22;;;;;;;1.90;1.10;;;;;;;5.24;84.33;99649.91;1721384;81;21113;-66
2022/04/14 02:35:56;;;;;;;2.65;1.27;;;;;;;5.23;83.68;99659.97;1743821;82;20979;-66
2022/04/14 02:38:26;;;;;;;3.60;1.10;;;;;;;5.23;83.68;99659.97;1739125;81;20904;-66
2022/04/14 02:40:57;;;;;;;2.62;1.10;;;;;;;5.22;83.43;99654.27;1744904;80;21046;-65
2022/04/14 02:43:28;;;;;;;2.72;1.17;;;;;;;5.21;82.72;99649.09;1773108;79;20974;-66
2022/04/14 02:45:58;;;;;;;1.67;1.00;;;;;;;5.20;82.24;99648.28;1768222;80;21272;-66
2022/04/14 02:48:25;;;;;;;2.05;1.20;;;;;;;5.20;81.96;99652.94;1747055;80;21550;-67
2022/04/14 02:50:52;;;;;;;3.83;1.40;;;;;;;5.18;82.01;99652.41;1768507;79;21072;-66
2022/04/14 02:53:23;;;;;;;6.97;1.20;;;;;;;5.17;81.98;99658.39;1739746;80;21260;-66
2022/04/14 02:55:51;;;;;;;2.52;1.00;;;;;;;5.16;81.54;99656.77;1741682;81;20889;-68
2022/04/14 02:58:25;;;;;;;2.37;1.07;;;;;;;5.16;81.54;99660.84;1758651;79;21158;-66
2022/04/14 03:01:00;;;;;;;2.17;1.00;;;;;;;5.19;81.35;99656.75;1789657;79;21468;-66
2022/04/14 03:03:28;;;;;;;1.32;0.80;;;;;;;5.19;80.65;99663.02;1761018;79;21505;-67
2022/04/14 03:05:58;;;;;;;3.55;1.00;;;;;;;5.20;80.76;99667.33;1738447;80;21708;-67
2022/04/14 03:08:33;;;;;;;1.75;0.93;;;;;;;5.19;80.54;99664.38;1743330;80;26546;-66
2022/04/14 03:11:03;;;;;;;3.33;1.15;;;;;;;5.21;80.26;99662.16;1737538;80;21102;-66
2022/04/14 03:13:32;;;;;;;1.62;0.80;;;;;;;5.23;79.93;99670.86;1744800;80;21061;-66
2022/04/14 03:16:03;;;;;;;1.87;1.20;;;;;;;5.24;79.50;99662.97;1742230;80;20939;-67
2022/04/14 03:18:34;;;;;;;3.95;1.10;;;;;;;5.23;79.60;99668.14;1738025;80;20956;-67
2022/04/14 03:21:03;;;;;;;3.58;1.00;;;;;;;5.27;79.13;99676.02;1714779;82;21003;-67
2022/04/14 03:23:34;;;;;;;1.70;0.90;;;;;;;5.27;79.13;99676.02;1757075;80;21472;-67
2022/04/14 03:26:03;;;;;;;3.40;1.20;;;;;;;5.26;79.15;99674.39;1723157;81;20983;-67
2022/04/14 03:28:36;;;;;;;2.40;0.88;;;;;;;5.27;78.63;99680.10;1751947;80;20919;-66
2022/04/14 03:31:07;;;;;;;2.58;1.07;;;;;;;5.29;78.53;99687.45;1756403;80;20969;-66
2022/04/14 03:33:40;;;;;;;2.62;1.32;;;;;;;5.30;78.69;99678.19;1753496;80;25327;-66
2022/04/14 03:36:08;;;;;;;2.67;0.88;;;;;;;5.33;78.39;99685.53;1758880;81;21164;-66
2022/04/14 03:38:38;;;;;;;4.47;1.22;;;;;;;5.31;77.98;99683.91;1762239;80;28691;-66
2022/04/14 03:41:11;;;;;;;1.67;1.07;;;;;;;5.31;77.82;99688.53;1762110;80;21463;-66
2022/04/14 03:43:43;;;;;;;2.15;1.42;;;;;;;5.30;77.66;99690.44;1771672;80;21459;-66
2022/04/14 03:46:15;;;;;;;3.55;1.42;;;;;;;5.28;77.41;99689.90;1769307;80;20881;-66
2022/04/14 03:48:54;;;;;;;3.35;1.22;;;;;;;5.26;77.85;99687.19;1737332;80;21002;-65
2022/04/14 03:51:28;;;;;;;3.12;1.10;;;;;;;5.25;77.44;99702.70;1734280;80;20983;-67
2022/04/14 03:53:56;;;;;;;2.37;1.00;;;;;;;5.24;76.70;99704.34;1744916;80;21514;-66
2022/04/14 03:56:46;;;;;;;2.47;1.10;;;;;;;5.23;76.73;99701.34;1779609;80;21463;-67
2022/04/14 03:58:55;;;;;;;4.22;1.00;;;;;;;5.23;76.73;99701.34;1751287;80;20944;-67
2022/04/14 04:01:24;;;;;;;3.35;1.20;;;;;;;5.23;76.58;99703.52;1749263;80;21139;-67
2022/04/14 04:03:56;;;;;;;6.35;1.40;;;;;;;5.22;76.60;99701.08;1760022;80;20919;-67
2022/04/14 04:06:27;;;;;;;1.62;1.15;;;;;;;5.27;76.95;99699.16;1758837;80;20885;-66
2022/04/14 04:09:03;;;;;;;4.45;1.17;;;;;;;5.27;76.95;99699.16;1759398;80;21467;-66
2022/04/14 04:11:32;;;;;;;1.62;1.10;;;;;;;5.31;75.71;99697.52;1746504;80;20840;-67
2022/04/14 04:14:04;;;;;;;3.45;1.70;;;;;;;5.31;75.71;99697.52;1757483;80;21445;-66
2022/04/14 04:16:36;;;;;;;5.28;2.02;;;;;;;5.36;76.19;99697.23;1770454;80;20965;-67
2022/04/14 04:19:05;;;;;;;4.45;1.10;;;;;;;5.39;76.03;99697.48;1770333;80;20872;-66
2022/04/14 04:21:37;;;;;;;3.60;1.25;;;;;;;5.41;75.32;99702.66;1767407;80;21501;-66
2022/04/14 04:24:07;;;;;;;3.15;1.40;;;;;;;5.42;75.39;99696.12;1774868;80;20982;-67
2022/04/14 04:26:41;;;;;;;2.40;1.05;;;;;;;5.47;75.68;99694.73;1760731;80;21017;-68
2022/04/14 04:29:12;;;;;;;3.37;1.55;;;;;;;5.47;75.68;99694.73;1731585;80;20884;-73
2022/04/14 04:31:47;;;;;;;3.37;1.10;;;;;;;5.53;74.28;99699.06;1735616;81;21023;-69
2022/04/14 04:34:17;;;;;;;4.42;1.40;;;;;;;5.57;74.93;99702.87;1708530;82;21083;-72
2022/04/14 04:36:48;;;;;;;4.72;1.22;;;;;;;5.57;74.93;99702.87;1679112;84;20953;-67
2022/04/14 04:39:16;;;;;;;3.00;1.17;;;;;;;5.63;74.68;99712.64;1662198;84;21024;-66
2022/04/14 04:41:44;;;;;;;3.95;1.85;;;;;;;5.67;74.57;99708.27;1683389;83;21080;-66
2022/04/14 04:44:19;;;;;;;3.67;1.32;;;;;;;5.81;74.00;99719.34;1683461;83;21582;-65
2022/04/14 04:46:53;;;;;;;4.37;1.30;;;;;;;5.81;74.00;99719.34;1680964;83;21120;-66
2022/04/14 04:49:24;;;;;;;4.37;1.60;;;;;;;5.85;73.64;99714.42;1733073;81;21183;-68
2022/04/14 04:51:55;;;;;;;7.95;2.35;;;;;;;5.90;73.62;99710.88;1733713;80;21820;-66
2022/04/14 04:54:26;;;;;;;7.55;1.82;;;;;;;5.94;73.10;99722.30;1731229;81;20957;-68
2022/04/14 04:56:58;;;;;;;4.05;1.50;;;;;;;5.98;72.32;99717.11;1737259;80;21077;-67
2022/04/14 04:59:30;;;;;;;5.35;1.92;;;;;;;6.03;72.53;99729.89;1736229;80;21135;-69
2022/04/14 05:02:00;;;;;;;11.90;2.35;;;;;;;6.07;72.53;99728.23;1751096;80;21511;-68
2022/04/14 05:04:28;;;;;;;4.40;2.10;;;;;;;6.11;72.08;99730.66;1752715;80;21252;-69
2022/04/14 05:06:58;;;;;;;4.00;1.92;;;;;;;6.15;71.75;99727.64;1728432;80;20967;-69
2022/04/14 05:09:25;;;;;;;5.97;1.92;;;;;;;6.17;70.67;99734.44;1744677;80;21007;-69
2022/04/14 05:11:54;;;;;;;5.50;1.80;;;;;;;6.18;71.57;99737.44;1732626;80;20987;-69
2022/04/14 05:14:29;;;;;;;9.28;2.40;;;;;;;6.23;71.47;99743.41;1739084;80;20992;-68
2022/04/14 05:17:03;;;;;;;5.78;2.00;;;;;;;6.27;71.20;99744.47;1737595;80;21088;-69
2022/04/14 05:19:34;;;;;;;4.22;1.70;;;;;;;6.31;71.25;99743.36;1735845;81;21523;-67
2022/04/14 05:22:04;;;;;;;11.93;2.67;;;;;;;6.32;70.07;99741.71;1702504;83;20917;-67
2022/04/14 05:24:35;;;;;;;5.60;2.05;;;;;;;6.41;72.62;99743.26;1690658;83;21063;-68
2022/04/14 05:27:07;;;;;;;3.98;1.70;;;;;;;6.41;72.62;99743.26;1715492;82;21117;-73
2022/04/14 05:29:38;;;;;;;4.08;1.87;;;;;;;6.46;70.44;99739.95;1727494;82;22280;-72
2022/04/14 05:32:11;;;;;;;6.60;1.70;;;;;;;6.47;69.74;99745.67;1727164;81;21407;-73
2022/04/14 05:34:37;;;;;;;3.52;1.32;;;;;;;6.47;70.28;99738.85;1723396;82;20888;-72
2022/04/14 05:37:05;;;;;;;4.80;1.60;;;;;;;6.49;69.90;99748.92;1725892;82;20957;-72
2022/04/14 05:39:46;;;;;;;4.03;1.72;;;;;;;6.50;69.70;99750.55;1730346;81;20988;-71
2022/04/14 05:42:10;;;;;;;4.33;1.40;;;;;;;6.48;69.19;99754.11;1720199;82;22291;-72
2022/04/14 05:44:45;;;;;;;3.40;1.65;;;;;;;6.45;68.93;99752.50;1723507;81;21445;-72
2022/04/14 05:47:17;;;;;;;3.27;1.20;;;;;;;6.42;69.13;99754.44;1727888;81;20971;-67
2022/04/14 05:49:51;;;;;;;4.70;1.52;;;;;;;6.40;69.30;99753.35;1739185;80;21535;-67
2022/04/14 05:52:25;;;;;;;3.17;1.60;;;;;;;6.41;69.00;99757.71;1738683;80;21008;-68
2022/04/14 05:54:54;;;;;;;8.48;3.08;;;;;;;6.39;69.68;99761.27;1674245;83;21522;-67
2022/04/14 05:57:24;;;;;;;5.72;2.10;;;;;;;6.36;69.48;99755.56;1665259;83;21016;-67
2022/04/14 05:59:51;;;;;;;14.63;4.22;;;;;;;6.34;69.05;99750.42;1689232;83;21546;-66
2022/04/14 06:02:24;;;;;;;10.05;4.30;;;;;;;6.31;68.96;99757.80;1682646;85;20996;-66
2022/04/14 06:04:53;;;;;;;14.03;4.83;;;;;;;6.32;69.04;99751.80;1742144;81;20982;-66
2022/04/14 06:07:20;;;;;;;12.15;3.47;;;;;;;6.33;69.90;99752.89;1744877;80;21238;-70
2022/04/14 06:09:48;;;;;;;11.90;3.52;;;;;;;6.38;69.72;99758.27;1761610;80;21509;-67
2022/04/14 06:12:16;;;;;;;8.75;3.45;;;;;;;6.49;69.65;99759.84;1748122;79;21471;-82
2022/04/14 06:14:46;;;;;;;7.72;2.20;;;;;;;6.49;69.65;99759.84;1741281;81;20917;-65
2022/04/14 06:17:19;;;;;;;6.72;2.65;;;;;;;6.55;69.52;99768.25;1744616;81;20912;-67
2022/04/14 06:19:48;;;;;;;15.83;2.90;;;;;;;6.58;68.81;99767.69;1751772;82;20971;-65
2022/04/14 06:22:18;;;;;;;20.90;4.67;;;;;;;6.62;68.91;99763.84;1751926;82;20988;-66
2022/04/14 06:24:51;;;;;;;12.73;3.30;;;;;;;6.67;68.65;99760.26;1729009;82;20963;-66
2022/04/14 06:27:22;;;;;;;11.38;2.50;;;;;;;6.73;68.00;99767.30;1728937;82;20892;-66
2022/04/14 06:30:00;;;;;;;10.85;3.00;;;;;;;6.76;68.39;99774.38;1745425;82;20997;-66
2022/04/14 06:32:32;;;;;;;9.08;2.50;;;;;;;6.80;68.06;99764.52;1728884;81;20884;-65
2022/04/14 06:35:08;;;;;;;20.62;3.30;;;;;;;6.86;68.06;99772.11;1728176;81;21458;-66
2022/04/14 06:37:42;;;;;;;4.08;1.55;;;;;;;6.90;67.94;99770.44;1738090;82;21042;-66
2022/04/14 06:40:10;;;;;;;;;;;;;;;6.95;67.68;99765.73;1746080;82;20935;-67
2022/04/14 06:42:42;;;;;;;5.85;2.00;;;;;;;7.02;68.43;99773.58;1722619;81;21025;-65
2022/04/14 06:45:16;;;;;;;6.05;1.77;;;;;;;7.11;67.93;99773.23;1752249;80;21253;-65
2022/04/14 06:47:47;;;;;;;5.47;1.77;;;;;;;7.18;67.28;99769.61;1733959;81;20873;-71
2022/04/14 06:50:23;;;;;;;10.88;2.55;;;;;;;7.20;67.30;99766.59;1753397;80;21493;-72
2022/04/14 06:52:55;;;;;;;5.85;1.72;;;;;;;7.23;66.84;99771.48;1748518;80;20932;-72
2022/04/14 06:55:27;;;;;;;4.55;1.70;;;;;;;7.25;66.47;99770.64;1753545;80;21067;-71
2022/04/14 06:57:58;;;;;;;4.28;1.52;;;;;;;7.32;66.34;99782.59;1763979;81;21640;-72
2022/04/14 07:00:27;;;;;;;6.62;1.92;;;;;;;7.31;65.73;99783.14;1763347;81;20916;-71
2022/04/14 07:02:57;;;;;;;12.40;2.52;;;;;;;7.29;66.43;99779.34;1730545;80;21612;-71
2022/04/14 07:05:28;;;;;;;7.80;2.80;;;;;;;7.34;66.31;99787.22;1740543;80;21645;-70
2022/04/14 07:07:58;;;;;;;7.65;2.50;;;;;;;7.36;65.49;99778.19;1770464;80;20939;-72
2022/04/14 07:10:27;;;;;;;3.70;1.98;;;;;;;7.37;65.40;99781.99;1768607;80;21125;-72
2022/04/14 07:12:58;;;;;;;4.67;1.70;;;;;;;7.35;65.65;99786.11;1758203;80;20985;-70
2022/04/14 07:15:33;;;;;;;4.53;1.30;;;;;;;7.36;65.71;99779.00;1766585;80;21062;-72
2022/04/14 07:18:09;;;;;;;1.95;1.27;;;;;;;7.38;65.27;99786.91;1731300;81;20956;-73
2022/04/14 07:20:40;;;;;;;3.65;1.40;;;;;;;7.36;65.08;99777.63;1757240;80;20881;-70
2022/04/14 07:23:14;;;;;;;3.08;1.67;;;;;;;7.34;64.73;99783.12;1761763;80;20909;-72
2022/04/14 07:25:51;;;;;;;6.40;1.80;;;;;;;7.36;65.58;99783.64;1754511;80;20932;-71
2022/04/14 07:28:24;;;;;;;22.65;5.50;;;;;;;7.45;65.94;99786.83;1750498;80;20966;-71
2022/04/14 07:30:59;;;;;;;3.85;1.55;;;;;;;7.51;65.33;99787.59;1747459;80;21440;-66
2022/04/14 07:33:27;;;;;;;2.98;1.40;;;;;;;7.53;64.83;99777.16;1742240;81;20935;-66
2022/04/14 07:35:55;;;;;;;7.37;2.33;;;;;;;7.56;64.53;99780.67;1742234;81;22127;-67
2022/04/14 07:38:27;;;;;;;2.45;1.07;;;;;;;7.62;65.23;99786.34;1757730;80;21112;-67
2022/04/14 07:40:58;;;;;;;6.60;2.65;;;;;;;7.71;64.51;99785.97;1750598;80;27289;-69
2022/04/14 07:43:36;;;;;;;5.85;1.98;;;;;;;7.80;65.55;99786.96;1765888;80;20971;-71
2022/04/14 07:46:11;;;;;;;5.60;1.72;;;;;;;7.94;65.20;99782.41;1712787;81;20885;-69
2022/04/14 07:48:40;;;;;;;6.53;1.98;;;;;;;8.15;63.76;99780.20;1723528;81;21166;-68
2022/04/14 07:51:10;;;;;;;3.72;1.80;;;;;;;8.27;63.81;99782.51;1715224;82;21425;-66
2022/04/14 07:53:41;;;;;;;37.00;7.35;;;;;;;8.39;62.37;99782.11;1722006;82;20862;-69
2022/04/14 07:56:17;;;;;;;4.53;2.05;;;;;;;8.41;61.42;99782.07;1722601;81;20971;-71
2022/04/14 07:58:43;;;;;;;5.62;2.08;;;;;;;8.41;62.29;99785.36;1706007;82;20983;-70
2022/04/14 08:01:08;;;;;;;5.62;1.98;;;;;;;8.41;61.91;99790.28;1705581;82;21165;-70
2022/04/14 08:03:37;;;;;;;5.25;1.98;;;;;;;8.45;61.87;99794.05;1706816;83;20979;-71
2022/04/14 08:06:03;;;;;;;5.33;1.90;;;;;;;8.53;62.01;99790.66;1705673;83;21003;-71
2022/04/14 08:08:31;;;;;;;4.80;1.80;;;;;;;8.67;61.84;99793.98;1702474;83;21671;-69
2022/04/14 08:11:02;;;;;;;18.65;4.05;;;;;;;8.71;60.42;99790.91;1726494;82;21007;-71
2022/04/14 08:13:30;;;;;;;5.85;2.22;;;;;;;8.72;59.47;99793.35;1715058;81;20977;-70
2022/04/14 08:16:01;;;;;;;3.75;1.80;;;;;;;8.73;60.25;99790.06;1732416;82;20940;-72
2022/04/14 08:18:28;;;;;;;4.15;1.55;;;;;;;8.77;60.46;99790.53;1762976;80;20955;-71
2022/04/14 08:20:57;;;;;;;8.23;1.77;;;;;;;8.82;60.68;99790.45;1775041;80;20988;-72
2022/04/14 08:23:23;;;;;;;3.40;1.45;;;;;;;8.85;60.31;99792.59;1773705;80;21022;-67
2022/04/14 08:25:50;;;;;;;4.25;1.62;;;;;;;8.92;59.96;99801.80;1762316;80;21774;-67
2022/04/14 08:28:17;;;;;;;3.62;1.40;;;;;;;8.99;59.19;99796.76;1780140;80;20963;-69
2022/04/14 08:30:46;;;;;;;6.40;1.77;;;;;;;9.03;60.27;99793.68;1762045;80;20987;-68
2022/04/14 08:33:23;;;;;;;9.18;2.10;;;;;;;9.08;58.44;99794.16;1723764;81;21483;-70
2022/04/14 08:35:52;;;;;;;4.55;1.52;;;;;;;9.02;57.24;99793.98;1755107;80;20926;-67
2022/04/14 08:38:24;;;;;;;6.33;1.52;;;;;;;8.97;58.39;99792.14;1734216;80;20935;-66
2022/04/14 08:41:00;;;;;;;5.90;1.40;;;;;;;9.02;58.49;99793.98;1757952;81;20937;-66
2022/04/14 08:43:33;;;;;;;6.83;2.08;;;;;;;9.07;57.89;99789.23;1769653;80;21538;-66
2022/04/14 08:46:06;;;;;;;3.50;1.65;;;;;;;9.18;58.13;99797.53;1723458;80;21103;-67
2022/04/14 08:48:36;;;;;;;12.05;2.58;;;;;;;9.30;57.78;99790.73;1759695;80;20919;-66
2022/04/14 08:51:10;;;;;;;5.17;2.00;;;;;;;9.41;56.98;99801.77;1759751;80;21884;-66
2022/04/14 08:53:40;;;;;;;4.40;1.52;;;;;;;9.52;55.89;99795.80;1764005;80;20922;-67
2022/04/14 08:56:10;;;;;;;7.20;1.70;;;;;;;9.59;56.23;99791.30;1762686;80;20931;-67
2022/04/14 08:58:44;;;;;;;7.60;2.83;;;;;;;9.65;56.29;99792.02;1772029;80;21018;-64
2022/04/14 09:01:17;;;;;;;7.40;1.42;;;;;;;9.82;57.86;99793.01;1769720;80;20920;-67
2022/04/14 09:03:49;;;;;;;5.65;2.17;;;;;;;10.03;56.24;99796.71;1767089;80;21008;-67
2022/04/14 09:06:16;;;;;;;4.75;1.90;;;;;;;10.20;55.16;99799.11;1769393;80;20931;-67
2022/04/14 09:08:46;;;;;;;5.55;1.22;;;;;;;10.31;53.03;99792.85;1773477;80;20978;-65
2022/04/14 09:11:18;;;;;;;5.70;1.65;;;;;;;10.34;52.48;99786.75;1763885;80;20936;-65
2022/04/14 09:13:52;;;;;;;4.20;1.45;;;;;;;10.36;52.23;99799.59;1767989;80;21576;-65
2022/04/14 09:16:21;;;;;;;7.90;1.60;;;;;;;10.41;52.83;99796.71;1778514;80;21870;-66
2022/04/14 09:18:53;;;;;;;3.72;1.47;;;;;;;10.44;51.35;99794.72;1771292;80;20948;-67
2022/04/14 09:21:26;;;;;;;5.47;1.87;;;;;;;10.62;54.95;99792.95;1760678;80;21099;-66
2022/04/14 09:24:02;;;;;;;5.22;1.65;;;;;;;10.80;51.06;99787.05;1748720;80;21499;-66
2022/04/14 09:26:31;;;;;;;3.25;1.30;;;;;;;10.87;49.79;99798.41;1744405;81;20841;-69
2022/04/14 09:29:11;;;;;;;15.10;2.15;;;;;;;10.96;48.65;99785.55;1752709;80;21557;-69
2022/04/14 09:31:50;;;;;;;6.72;1.60;;;;;;;11.05;50.89;99780.09;1777500;80;20883;-69
2022/04/14 09:34:39;;;;;;;2.98;1.40;;;;;;;11.28;48.90;99783.63;1768670;80;20971;-66
2022/04/14 09:37:12;;;;;;;6.53;2.00;;;;;;;11.53;49.31;99769.22;1728031;81;20888;-68
2022/04/14 09:39:57;;;;;;;3.58;1.70;;;;;;;11.77;44.91;99765.52;1730279;80;21030;-67
2022/04/14 09:42:33;;;;;;;5.42;1.22;;;;;;;11.75;46.05;99765.00;1750049;80;21728;-67
2022/04/14 09:45:25;;;;;;;4.03;1.57;;;;;;;11.80;44.88;99769.02;1747810;81;20840;-68
2022/04/14 09:47:57;;;;;;;4.30;1.53;;;;;;;11.92;46.26;99769.78;1750492;80;20930;-67
2022/04/14 09:50:42;;;;;;;3.92;1.40;;;;;;;12.20;46.25;99758.73;1752115;80;20907;-68
2022/04/14 09:53:21;;;;;;;3.58;1.35;;;;;;;12.35;43.54;99756.09;1772705;80;21984;-69
2022/04/14 09:55:59;;;;;;;2.65;1.27;;;;;;;12.58;42.36;99753.20;1770466;80;21148;-66
2022/04/14 09:58:33;;;;;;;3.67;1.42;;;;;;;12.89;44.01;99760.13;1778394;80;21156;-69
2022/04/14 10:01:04;;;;;;;6.05;1.52;;;;;;;13.45;42.14;99761.56;1733753;80;21658;-68
2022/04/14 10:03:36;;;;;;;3.75;1.42;;;;;;;13.95;41.16;99774.64;1763126;80;21132;-67
2022/04/14 10:06:13;;;;;;;7.97;1.62;;;;;;;14.36;39.97;99767.81;1776295;80;21498;-66
2022/04/14 10:08:52;;;;;;;3.65;1.90;;;;;;;14.78;38.84;99758.16;1780794;80;21016;-70
2022/04/14 10:11:30;;;;;;;6.17;1.50;;;;;;;15.23;38.12;99756.00;1730948;81;20881;-70
2022/04/14 10:14:13;;;;;;;2.12;1.35;;;;;;;15.62;36.66;99760.93;1763535;80;20880;-68
2022/04/14 10:16:46;;;;;;;3.40;1.40;;;;;;;15.78;36.23;99761.06;1712218;80;20940;-68
2022/04/14 10:19:23;;;;;;;3.92;2.10;;;;;;;16.04;36.31;99762.11;1777860;80;20881;-69
2022/04/14 10:21:58;;;;;;;11.15;6.30;;;;;;;16.24;34.94;99759.76;1758604;80;20904;-69
2022/04/14 10:24:35;;;;;;;16.80;10.28;;;;;;;16.22;34.82;99768.19;1749446;80;20971;-68
2022/04/14 10:27:06;;;;;;;5.97;2.12;;;;;;;16.36;33.69;99767.25;1751901;80;21593;-67
2022/04/14 10:29:34;;;;;;;2.30;1.52;;;;;;;16.56;31.85;99762.13;1751662;80;20908;-68
2022/04/14 10:32:03;;;;;;;8.85;5.37;;;;;;;16.66;32.06;99767.80;1776103;80;21431;-65
2022/04/14 10:34:31;;;;;;;6.58;3.45;;;;;;;16.68;32.61;99762.13;1754909;80;21187;-65
2022/04/14 10:36:58;;;;;;;7.40;4.10;;;;;;;16.84;33.60;99766.32;1760369;80;20885;-65
2022/04/14 10:39:26;;;;;;;6.47;2.20;;;;;;;16.94;31.30;99765.02;1748392;81;21011;-70
2022/04/14 10:41:53;;;;;;;4.15;1.30;;;;;;;16.99;32.02;99769.73;1744771;81;21004;-70
2022/04/14 10:44:22;;;;;;;10.95;1.52;;;;;;;17.18;31.45;99761.33;1743596;81;21041;-69
2022/04/14 10:46:51;;;;;;;6.97;2.70;;;;;;;17.35;30.02;99759.02;1748718;80;21514;-69
2022/04/14 10:49:27;;;;;;;5.17;2.50;;;;;;;17.46;29.66;99756.52;1742996;81;20908;-64
2022/04/14 10:51:55;;;;;;;7.72;1.60;;;;;;;17.63;30.33;99762.31;1744581;81;21036;-65
2022/04/14 10:54:35;;;;;;;7.80;1.67;;;;;;;17.65;29.81;99755.27;1745337;81;21392;-65
2022/04/14 10:56:59;;;;;;;3.02;1.45;;;;;;;17.64;27.88;99729.23;1742365;81;21613;-65
2022/04/14 10:59:47;;;;;;;4.15;1.27;;;;;;;17.68;28.45;99758.72;1725947;82;21018;-64
2022/04/14 11:02:17;;;;;;;3.85;1.15;;;;;;;17.78;29.00;99754.60;1745019;81;20923;-65
2022/04/14 11:04:52;;;;;;;3.40;1.17;;;;;;;17.95;29.90;99757.56;1749681;81;20975;-65
2022/04/14 11:07:22;;;;;;;2.45;1.30;;;;;;;18.07;27.40;99757.47;1746255;81;20968;-65
2022/04/14 11:09:58;;;;;;;3.30;1.20;;;;;;;17.94;28.64;99759.53;1742936;81;20988;-65
2022/04/14 11:12:47;;;;;;;2.25;1.10;;;;;;;17.90;28.05;99760.64;1745797;81;20911;-66
2022/04/14 11:15:17;;;;;;;2.45;1.62;;;;;;;17.99;28.18;99758.46;1750734;81;21007;-70
2022/04/14 11:17:53;;;;;;;;;;;;;;;18.20;27.86;99763.14;1735289;82;20983;-69
2022/04/14 11:20:35;;;;;;;29.50;5.60;;;;;;;18.34;27.84;99752.35;1744370;80;20134;-67
2022/04/14 11:23:14;;;;;;;3.00;1.67;;;;;;;18.54;28.13;99757.92;1735087;81;21069;-69
2022/04/14 11:25:47;;;;;;;3.10;1.20;;;;;;;18.83;26.61;99742.68;1757562;80;21388;-71
2022/04/14 11:28:33;;;;;;;5.72;1.77;;;;;;;18.86;26.96;99751.09;1750571;80;21063;-71
2022/04/14 11:31:16;;;;;;;6.90;1.62;;;;;;;18.74;25.50;99742.89;1755033;80;20853;-68
2022/04/14 11:33:45;;;;;;;;;;;;;;;18.60;26.82;99745.34;1751861;81;20920;-69
2022/04/14 11:36:17;;;;;;;4.15;1.30;;;;;;;18.73;25.69;99735.14;1749382;81;20084;-69
2022/04/14 11:39:04;;;;;;;2.37;1.30;;;;;;;18.74;24.96;99742.89;1745929;81;21872;-70
2022/04/14 11:41:53;;;;;;;5.22;2.20;;;;;;;18.78;27.74;99746.56;1721573;81;20935;-72
2022/04/14 11:44:34;;;;;;;1.92;0.93;;;;;;;19.10;27.17;99735.46;1715320;82;21058;-72
2022/04/14 11:47:02;;;;;;;6.00;1.42;;;;;;;19.36;24.16;99729.78;1739779;81;21861;-70
2022/04/14 11:49:33;;;;;;;3.95;1.72;;;;;;;19.09;25.28;99729.68;1738612;82;20983;-70
2022/04/14 11:52:03;;;;;;;4.05;1.40;;;;;;;19.08;26.82;99730.85;1752362;80;21065;-69
2022/04/14 11:54:34;;;;;;;2.98;0.80;;;;;;;19.29;26.66;99726.28;1726550;82;21525;-67
2022/04/14 11:57:09;;;;;;;23.98;4.05;;;;;;;19.33;23.47;99720.19;1758811;80;20967;-71
2022/04/14 11:59:44;;;;;;;26.95;4.28;;;;;;;19.17;24.31;99723.66;1740791;82;20956;-67
2022/04/14 12:02:22;;;;;;;9.98;3.00;;;;;;;19.25;24.43;99721.81;1744338;81;20974;-67